Station Historical Data
Daily Summary for February 28, 2012 Units:  Both    English   Metric
« Previous Day
Next Day »
Daily Weekly Monthly Yearly Custom
  High: Low: Average:
Temperature: 69.1 °F /  20.6 °C 45.7 °F /  7.6 °C 57.5 °F /  14.2 °C
Dew Point: 58.7 °F /  14.8 °C 37.7 °F /  3.2 °C 47.9 °F /  8.8 °C
Humidity: 95% 55% 71%
Wind Speed: 17.0mph /  27.4km/h - 6.1mph /  9.8km/h
Wind Gust: 19.0mph /  30.6km/h - -
Wind- - ESE
Pressure: 30.33 in /  1027 hPa 30.05 in /  1017.5 hPa -
Precipitation: 0.01 in /  0.25 mm    
Historical Graphs
 
 
Tabular Data for February 28, 2012
Time Temperature Dew Point Pressure Wind Wind Speed Wind Gust Humidity Rainfall Rate (Hourly) Conditions
00:00 51.8 °F /  11 °C 40.8 °F /  4.9 °C 30.32in /  1026.6hPa NNE 4.0mph /  6.4km/h 6.0mph /  9.7km/h 66% 0.00in /  0mm
00:05 52.0 °F /  11.1 °C 41.0 °F /  5 °C 30.32in /  1026.6hPa NE 5.0mph /  8km/h 6.0mph /  9.7km/h 66% 0.00in /  0mm
00:10 52.2 °F /  11.2 °C 40.4 °F /  4.7 °C 30.33in /  1027hPa NE 5.0mph /  8km/h 5.0mph /  8km/h 64% 0.00in /  0mm
00:15 52.6 °F /  11.4 °C 40.8 °F /  4.9 °C 30.33in /  1027hPa NNE 3.0mph /  4.8km/h 6.0mph /  9.7km/h 64% 0.00in /  0mm
00:20 52.4 °F /  11.3 °C 40.6 °F /  4.8 °C 30.32in /  1026.6hPa NE 6.0mph /  9.7km/h 6.0mph /  9.7km/h 64% 0.00in /  0mm
00:25 52.5 °F /  11.4 °C 40.3 °F /  4.6 °C 30.33in /  1027hPa NE 4.0mph /  6.4km/h 9.0mph /  14.5km/h 63% 0.00in /  0mm
00:30 52.6 °F /  11.4 °C 40.4 °F /  4.7 °C 30.33in /  1027hPa NE 3.0mph /  4.8km/h 8.0mph /  12.9km/h 63% 0.00in /  0mm
00:35 52.5 °F /  11.4 °C 40.3 °F /  4.6 °C 30.32in /  1026.6hPa NE 4.0mph /  6.4km/h 7.0mph /  11.3km/h 63% 0.00in /  0mm
00:37 52.5 °F /  11.4 °C 40.3 °F /  4.6 °C 30.32in /  1026.6hPa NE 4.0mph /  6.4km/h 7.0mph /  11.3km/h 63% 0.00in /  0mm
00:42 52.4 °F /  11.3 °C 40.2 °F /  4.6 °C 30.32in /  1026.6hPa NNE 4.0mph /  6.4km/h 6.0mph /  9.7km/h 63% 0.00in /  0mm
00:47 52.4 °F /  11.3 °C 40.2 °F /  4.6 °C 30.32in /  1026.6hPa NE 3.0mph /  4.8km/h 6.0mph /  9.7km/h 63% 0.00in /  0mm
00:52 52.2 °F /  11.2 °C 40.0 °F /  4.4 °C 30.33in /  1027hPa ENE 3.0mph /  4.8km/h 4.0mph /  6.4km/h 63% 0.00in /  0mm
00:57 52.0 °F /  11.1 °C 39.8 °F /  4.3 °C 30.33in /  1027hPa NE 3.0mph /  4.8km/h 6.0mph /  9.7km/h 63% 0.00in /  0mm
01:02 51.7 °F /  10.9 °C 39.5 °F /  4.2 °C 30.32in /  1026.6hPa NNE 4.0mph /  6.4km/h 6.0mph /  9.7km/h 63% 0.00in /  0mm
01:07 51.7 °F /  10.9 °C 39.9 °F /  4.4 °C 30.32in /  1026.6hPa NE 4.0mph /  6.4km/h 7.0mph /  11.3km/h 64% 0.00in /  0mm
01:12 51.5 °F /  10.8 °C 39.7 °F /  4.3 °C 30.32in /  1026.6hPa NNE 3.0mph /  4.8km/h 5.0mph /  8km/h 64% 0.00in /  0mm
01:17 51.3 °F /  10.7 °C 39.5 °F /  4.2 °C 30.32in /  1026.6hPa NE 3.0mph /  4.8km/h 4.0mph /  6.4km/h 64% 0.00in /  0mm
01:22 51.2 °F /  10.7 °C 39.5 °F /  4.2 °C 30.32in /  1026.6hPa NE 3.0mph /  4.8km/h 5.0mph /  8km/h 64% 0.00in /  0mm
01:27 50.8 °F /  10.4 °C 39.5 °F /  4.2 °C 30.32in /  1026.6hPa NE 4.0mph /  6.4km/h 4.0mph /  6.4km/h 65% 0.00in /  0mm
01:32 50.6 °F /  10.3 °C 39.3 °F /  4.1 °C 30.32in /  1026.6hPa NNE 3.0mph /  4.8km/h 4.0mph /  6.4km/h 65% 0.00in /  0mm
01:37 50.5 °F /  10.3 °C 39.2 °F /  4 °C 30.33in /  1027hPa NNE 5.0mph /  8km/h 6.0mph /  9.7km/h 65% 0.00in /  0mm
01:42 50.5 °F /  10.3 °C 39.6 °F /  4.2 °C 30.32in /  1026.6hPa NNE 4.0mph /  6.4km/h 6.0mph /  9.7km/h 66% 0.00in /  0mm
01:47 50.4 °F /  10.2 °C 39.5 °F /  4.2 °C 30.33in /  1027hPa NE 5.0mph /  8km/h 6.0mph /  9.7km/h 66% 0.00in /  0mm
01:52 50.4 °F /  10.2 °C 39.5 °F /  4.2 °C 30.32in /  1026.6hPa NNE 4.0mph /  6.4km/h 7.0mph /  11.3km/h 66% 0.00in /  0mm
01:57 50.4 °F /  10.2 °C 39.5 °F /  4.2 °C 30.32in /  1026.6hPa NE 5.0mph /  8km/h 6.0mph /  9.7km/h 66% 0.00in /  0mm
02:02 50.3 °F /  10.2 °C 39.4 °F /  4.1 °C 30.32in /  1026.6hPa NE 3.0mph /  4.8km/h 7.0mph /  11.3km/h 66% 0.00in /  0mm
02:07 50.3 °F /  10.2 °C 39.4 °F /  4.1 °C 30.32in /  1026.6hPa NNE 5.0mph /  8km/h 7.0mph /  11.3km/h 66% 0.00in /  0mm
02:12 50.1 °F /  10.1 °C 39.2 °F /  4 °C 30.32in /  1026.6hPa NNE 4.0mph /  6.4km/h 6.0mph /  9.7km/h 66% 0.00in /  0mm
02:17 49.9 °F /  9.9 °C 39.0 °F /  3.9 °C 30.32in /  1026.6hPa NNE 3.0mph /  4.8km/h 7.0mph /  11.3km/h 66% 0.00in /  0mm
02:22 49.9 °F /  9.9 °C 39.0 °F /  3.9 °C 30.32in /  1026.6hPa NE 5.0mph /  8km/h 6.0mph /  9.7km/h 66% 0.00in /  0mm
02:27 50.0 °F /  10 °C 39.1 °F /  3.9 °C 30.32in /  1026.6hPa NE 4.0mph /  6.4km/h 7.0mph /  11.3km/h 66% 0.00in /  0mm
02:32 50.1 °F /  10.1 °C 39.2 °F /  4 °C 30.32in /  1026.6hPa NE 4.0mph /  6.4km/h 8.0mph /  12.9km/h 66% 0.00in /  0mm
02:37 50.1 °F /  10.1 °C 39.2 °F /  4 °C 30.32in /  1026.6hPa NE 5.0mph /  8km/h 7.0mph /  11.3km/h 66% 0.00in /  0mm
02:42 49.9 °F /  9.9 °C 39.0 °F /  3.9 °C 30.31in /  1026.3hPa NE 4.0mph /  6.4km/h 7.0mph /  11.3km/h 66% 0.00in /  0mm
02:47 49.8 °F /  9.9 °C 38.9 °F /  3.8 °C 30.31in /  1026.3hPa NE 4.0mph /  6.4km/h 5.0mph /  8km/h 66% 0.00in /  0mm
02:52 49.4 °F /  9.7 °C 38.9 °F /  3.8 °C 30.31in /  1026.3hPa NE 3.0mph /  4.8km/h 5.0mph /  8km/h 67% 0.00in /  0mm
02:57 49.2 °F /  9.6 °C 38.7 °F /  3.7 °C 30.31in /  1026.3hPa NE 4.0mph /  6.4km/h 5.0mph /  8km/h 67% 0.00in /  0mm
03:02 49.0 °F /  9.4 °C 38.5 °F /  3.6 °C 30.31in /  1026.3hPa NE 4.0mph /  6.4km/h 6.0mph /  9.7km/h 67% 0.00in /  0mm
03:07 48.9 °F /  9.4 °C 38.4 °F /  3.6 °C 30.31in /  1026.3hPa NE 3.0mph /  4.8km/h 6.0mph /  9.7km/h 67% 0.00in /  0mm
03:12 48.6 °F /  9.2 °C 38.5 °F /  3.6 °C 30.30in /  1026hPa NE 5.0mph /  8km/h 6.0mph /  9.7km/h 68% 0.00in /  0mm
03:17 48.3 °F /  9.1 °C 38.2 °F /  3.4 °C 30.30in /  1026hPa NNE 3.0mph /  4.8km/h 5.0mph /  8km/h 68% 0.00in /  0mm
03:22 48.4 °F /  9.1 °C 38.3 °F /  3.5 °C 30.30in /  1026hPa NNE 5.0mph /  8km/h 5.0mph /  8km/h 68% 0.00in /  0mm
03:27 48.3 °F /  9.1 °C 38.2 °F /  3.4 °C 30.30in /  1026hPa NE 4.0mph /  6.4km/h 6.0mph /  9.7km/h 68% 0.00in /  0mm
03:32 48.2 °F /  9 °C 38.2 °F /  3.4 °C 30.29in /  1025.6hPa NNE 3.0mph /  4.8km/h 6.0mph /  9.7km/h 68% 0.00in /  0mm
03:37 48.0 °F /  8.9 °C 38.3 °F /  3.5 °C 30.29in /  1025.6hPa NE 3.0mph /  4.8km/h 5.0mph /  8km/h 69% 0.00in /  0mm
03:42 47.9 °F /  8.8 °C 38.2 °F /  3.4 °C 30.29in /  1025.6hPa NNE 4.0mph /  6.4km/h 4.0mph /  6.4km/h 69% 0.00in /  0mm
03:47 47.9 °F /  8.8 °C 38.2 °F /  3.4 °C 30.29in /  1025.6hPa NE 4.0mph /  6.4km/h 5.0mph /  8km/h 69% 0.00in /  0mm
03:52 47.8 °F /  8.8 °C 38.1 °F /  3.4 °C 30.29in /  1025.6hPa NE 4.0mph /  6.4km/h 6.0mph /  9.7km/h 69% 0.00in /  0mm
03:57 47.9 °F /  8.8 °C 38.2 °F /  3.4 °C 30.29in /  1025.6hPa NNE 3.0mph /  4.8km/h 6.0mph /  9.7km/h 69% 0.00in /  0mm
04:03 47.9 °F /  8.8 °C 38.2 °F /  3.4 °C 30.28in /  1025.3hPa NNE 4.0mph /  6.4km/h 7.0mph /  11.3km/h 69% 0.00in /  0mm
04:08 47.8 °F /  8.8 °C 38.1 °F /  3.4 °C 30.28in /  1025.3hPa NNE 3.0mph /  4.8km/h 6.0mph /  9.7km/h 69% 0.00in /  0mm
04:13 47.8 °F /  8.8 °C 38.1 °F /  3.4 °C 30.28in /  1025.3hPa NNE 3.0mph /  4.8km/h 5.0mph /  8km/h 69% 0.00in /  0mm
04:18 47.6 °F /  8.7 °C 38.0 °F /  3.3 °C 30.28in /  1025.3hPa NNE 3.0mph /  4.8km/h 6.0mph /  9.7km/h 69% 0.00in /  0mm
04:23 47.5 °F /  8.6 °C 38.2 °F /  3.4 °C 30.28in /  1025.3hPa NNE 5.0mph /  8km/h 6.0mph /  9.7km/h 70% 0.00in /  0mm
04:28 47.4 °F /  8.6 °C 38.1 °F /  3.4 °C 30.28in /  1025.3hPa NE 3.0mph /  4.8km/h 6.0mph /  9.7km/h 70% 0.00in /  0mm
04:33 47.3 °F /  8.5 °C 38.0 °F /  3.3 °C 30.28in /  1025.3hPa North 4.0mph /  6.4km/h 7.0mph /  11.3km/h 70% 0.00in /  0mm
04:38 47.2 °F /  8.4 °C 37.9 °F /  3.3 °C 30.28in /  1025.3hPa NNE 3.0mph /  4.8km/h 6.0mph /  9.7km/h 70% 0.00in /  0mm
04:43 47.0 °F /  8.3 °C 38.1 °F /  3.4 °C 30.28in /  1025.3hPa NNE 3.0mph /  4.8km/h 5.0mph /  8km/h 71% 0.00in /  0mm
04:48 47.0 °F /  8.3 °C 38.1 °F /  3.4 °C 30.28in /  1025.3hPa NNE 3.0mph /  4.8km/h 5.0mph /  8km/h 71% 0.00in /  0mm
04:53 47.4 °F /  8.6 °C 38.1 °F /  3.4 °C 30.27in /  1024.9hPa NE 3.0mph /  4.8km/h 7.0mph /  11.3km/h 70% 0.00in /  0mm
04:58 47.4 °F /  8.6 °C 38.1 °F /  3.4 °C 30.28in /  1025.3hPa NE 5.0mph /  8km/h 6.0mph /  9.7km/h 70% 0.00in /  0mm
05:03 47.3 °F /  8.5 °C 38.0 °F /  3.3 °C 30.28in /  1025.3hPa NNE 4.0mph /  6.4km/h 5.0mph /  8km/h 70% 0.00in /  0mm
05:08 47.2 °F /  8.4 °C 38.3 °F /  3.5 °C 30.28in /  1025.3hPa NE 3.0mph /  4.8km/h 5.0mph /  8km/h 71% 0.00in /  0mm
05:13 47.3 °F /  8.5 °C 38.4 °F /  3.6 °C 30.28in /  1025.3hPa NE 4.0mph /  6.4km/h 6.0mph /  9.7km/h 71% 0.00in /  0mm
05:18 47.5 °F /  8.6 °C 38.2 °F /  3.4 °C 30.28in /  1025.3hPa NE 2.0mph /  3.2km/h 6.0mph /  9.7km/h 70% 0.00in /  0mm
05:23 47.5 °F /  8.6 °C 38.2 °F /  3.4 °C 30.28in /  1025.3hPa NE 5.0mph /  8km/h 5.0mph /  8km/h 70% 0.00in /  0mm
05:28 47.6 °F /  8.7 °C 38.3 °F /  3.5 °C 30.28in /  1025.3hPa NE 5.0mph /  8km/h 7.0mph /  11.3km/h 70% 0.00in /  0mm
05:33 47.4 °F /  8.6 °C 38.1 °F /  3.4 °C 30.28in /  1025.3hPa NNE 2.0mph /  3.2km/h 5.0mph /  8km/h 70% 0.00in /  0mm
05:39 47.2 °F /  8.4 °C 38.3 °F /  3.5 °C 30.29in /  1025.6hPa NNE 3.0mph /  4.8km/h 6.0mph /  9.7km/h 71% 0.00in /  0mm
05:44 46.9 °F /  8.3 °C 38.0 °F /  3.3 °C 30.29in /  1025.6hPa North 1.0mph /  1.6km/h 3.0mph /  4.8km/h 71% 0.00in /  0mm
05:49 46.4 °F /  8 °C 37.9 °F /  3.3 °C 30.29in /  1025.6hPa NNE 1.0mph /  1.6km/h 2.0mph /  3.2km/h 72% 0.00in /  0mm
05:54 46.1 °F /  7.8 °C 37.9 °F /  3.3 °C 30.29in /  1025.6hPa NNE 1.0mph /  1.6km/h 2.0mph /  3.2km/h 73% 0.00in /  0mm
05:59 45.8 °F /  7.7 °C 37.7 °F /  3.2 °C 30.29in /  1025.6hPa NE 2.0mph /  3.2km/h 2.0mph /  3.2km/h 73% 0.00in /  0mm
06:04 45.9 °F /  7.7 °C 37.8 °F /  3.2 °C 30.29in /  1025.6hPa NNE 2.0mph /  3.2km/h 3.0mph /  4.8km/h 73% 0.00in /  0mm
06:09 45.8 °F /  7.7 °C 37.7 °F /  3.2 °C 30.29in /  1025.6hPa NNE 3.0mph /  4.8km/h 3.0mph /  4.8km/h 73% 0.00in /  0mm
06:14 45.9 °F /  7.7 °C 37.8 °F /  3.2 °C 30.29in /  1025.6hPa NE 1.0mph /  1.6km/h 3.0mph /  4.8km/h 73% 0.00in /  0mm
06:19 46.1 °F /  7.8 °C 37.9 °F /  3.3 °C 30.29in /  1025.6hPa NE 2.0mph /  3.2km/h 4.0mph /  6.4km/h 73% 0.00in /  0mm
06:24 46.4 °F /  8 °C 38.2 °F /  3.4 °C 30.29in /  1025.6hPa NE 3.0mph /  4.8km/h 5.0mph /  8km/h 73% 0.00in /  0mm
06:29 46.5 °F /  8.1 °C 38.0 °F /  3.3 °C 30.30in /  1026hPa NNE 2.0mph /  3.2km/h 4.0mph /  6.4km/h 72% 0.00in /  0mm
06:34 46.2 °F /  7.9 °C 38.0 °F /  3.3 °C 30.30in /  1026hPa NNE 3.0mph /  4.8km/h 3.0mph /  4.8km/h 73% 0.00in /  0mm
06:39 45.7 °F /  7.6 °C 37.9 °F /  3.3 °C 30.30in /  1026hPa NE 3.0mph /  4.8km/h 3.0mph /  4.8km/h 74% 0.00in /  0mm
06:44 45.9 °F /  7.7 °C 37.8 °F /  3.2 °C 30.29in /  1025.6hPa NE 3.0mph /  4.8km/h 4.0mph /  6.4km/h 73% 0.00in /  0mm
06:49 46.1 °F /  7.8 °C 37.9 °F /  3.3 °C 30.29in /  1025.6hPa NE 4.0mph /  6.4km/h 5.0mph /  8km/h 73% 0.00in /  0mm
06:54 46.3 °F /  7.9 °C 38.1 °F /  3.4 °C 30.29in /  1025.6hPa NE 4.0mph /  6.4km/h 5.0mph /  8km/h 73% 0.00in /  0mm
06:59 46.6 °F /  8.1 °C 38.1 °F /  3.4 °C 30.29in /  1025.6hPa NE 3.0mph /  4.8km/h 5.0mph /  8km/h 72% 0.00in /  0mm
07:04 46.8 °F /  8.2 °C 38.3 °F /  3.5 °C 30.29in /  1025.6hPa NNE 5.0mph /  8km/h 6.0mph /  9.7km/h 72% 0.00in /  0mm
07:09 46.9 °F /  8.3 °C 38.4 °F /  3.6 °C 30.29in /  1025.6hPa NE 3.0mph /  4.8km/h 8.0mph /  12.9km/h 72% 0.00in /  0mm
07:14 46.9 °F /  8.3 °C 38.4 °F /  3.6 °C 30.29in /  1025.6hPa NE 2.0mph /  3.2km/h 4.0mph /  6.4km/h 72% 0.00in /  0mm
07:19 46.8 °F /  8.2 °C 38.3 °F /  3.5 °C 30.28in /  1025.3hPa NE 3.0mph /  4.8km/h 6.0mph /  9.7km/h 72% 0.00in /  0mm
07:24 47.0 °F /  8.3 °C 38.5 °F /  3.6 °C 30.28in /  1025.3hPa NE 5.0mph /  8km/h 7.0mph /  11.3km/h 72% 0.00in /  0mm
07:29 47.0 °F /  8.3 °C 38.5 °F /  3.6 °C 30.28in /  1025.3hPa NE 2.0mph /  3.2km/h 5.0mph /  8km/h 72% 0.00in /  0mm
07:34 47.1 °F /  8.4 °C 38.5 °F /  3.6 °C 30.28in /  1025.3hPa East 2.0mph /  3.2km/h 5.0mph /  8km/h 72% 0.00in /  0mm
07:39 47.1 °F /  8.4 °C 38.9 °F /  3.8 °C 30.28in /  1025.3hPa ENE 3.0mph /  4.8km/h 5.0mph /  8km/h 73% 0.00in /  0mm
07:44 47.1 °F /  8.4 °C 38.9 °F /  3.8 °C 30.28in /  1025.3hPa East 2.0mph /  3.2km/h 5.0mph /  8km/h 73% 0.00in /  0mm
07:49 47.2 °F /  8.4 °C 39.0 °F /  3.9 °C 30.28in /  1025.3hPa ENE 3.0mph /  4.8km/h 5.0mph /  8km/h 73% 0.00in /  0mm
07:54 47.4 °F /  8.6 °C 39.2 °F /  4 °C 30.28in /  1025.3hPa ENE 2.0mph /  3.2km/h 4.0mph /  6.4km/h 73% 0.00in /  0mm
07:59 47.5 °F /  8.6 °C 38.9 °F /  3.8 °C 30.28in /  1025.3hPa East 3.0mph /  4.8km/h 5.0mph /  8km/h 72% 0.00in /  0mm
08:04 47.4 °F /  8.6 °C 39.2 °F /  4 °C 30.28in /  1025.3hPa East 4.0mph /  6.4km/h 5.0mph /  8km/h 73% 0.00in /  0mm
08:09 47.3 °F /  8.5 °C 39.1 °F /  3.9 °C 30.28in /  1025.3hPa East 2.0mph /  3.2km/h 5.0mph /  8km/h 73% 0.00in /  0mm
08:15 47.5 °F /  8.6 °C 39.3 °F /  4.1 °C 30.29in /  1025.6hPa East 3.0mph /  4.8km/h 4.0mph /  6.4km/h 73% 0.00in /  0mm
08:20 47.8 °F /  8.8 °C 39.6 °F /  4.2 °C 30.28in /  1025.3hPa ENE 2.0mph /  3.2km/h 5.0mph /  8km/h 73% 0.00in /  0mm
08:25 48.4 °F /  9.1 °C 39.8 °F /  4.3 °C 30.29in /  1025.6hPa NE 2.0mph /  3.2km/h 3.0mph /  4.8km/h 72% 0.00in /  0mm
08:30 49.0 °F /  9.4 °C 40.4 °F /  4.7 °C 30.29in /  1025.6hPa ENE 1.0mph /  1.6km/h 4.0mph /  6.4km/h 72% 0.00in /  0mm
08:35 49.9 °F /  9.9 °C 40.5 °F /  4.7 °C 30.29in /  1025.6hPa East 4.0mph /  6.4km/h 5.0mph /  8km/h 70% 0.00in /  0mm
08:40 50.5 °F /  10.3 °C 40.7 °F /  4.8 °C 30.29in /  1025.6hPa NE 5.0mph /  8km/h 6.0mph /  9.7km/h 69% 0.00in /  0mm
08:45 51.1 °F /  10.6 °C 40.9 °F /  4.9 °C 30.29in /  1025.6hPa East 3.0mph /  4.8km/h 5.0mph /  8km/h 68% 0.00in /  0mm
08:50 51.5 °F /  10.8 °C 41.3 °F /  5.2 °C 30.29in /  1025.6hPa ENE 4.0mph /  6.4km/h 7.0mph /  11.3km/h 68% 0.00in /  0mm
08:55 51.7 °F /  10.9 °C 41.9 °F /  5.5 °C 30.29in /  1025.6hPa ENE 7.0mph /  11.3km/h 7.0mph /  11.3km/h 69% 0.00in /  0mm
08:56 51.7 °F /  10.9 °C 41.5 °F /  5.3 °C 30.29in /  1025.6hPa East 5.0mph /  8km/h 7.0mph /  11.3km/h 68% 0.00in /  0mm
09:01 51.8 °F /  11 °C 41.6 °F /  5.3 °C 30.29in /  1025.6hPa East 3.0mph /  4.8km/h 6.0mph /  9.7km/h 68% 0.00in /  0mm
09:06 52.0 °F /  11.1 °C 41.8 °F /  5.4 °C 30.29in /  1025.6hPa East 4.0mph /  6.4km/h 5.0mph /  8km/h 68% 0.00in /  0mm
09:11 52.3 °F /  11.3 °C 42.1 °F /  5.6 °C 30.29in /  1025.6hPa East 4.0mph /  6.4km/h 5.0mph /  8km/h 68% 0.00in /  0mm
09:16 52.5 °F /  11.4 °C 42.3 °F /  5.7 °C 30.29in /  1025.6hPa NE 4.0mph /  6.4km/h 5.0mph /  8km/h 68% 0.00in /  0mm
09:21 52.7 °F /  11.5 °C 42.1 °F /  5.6 °C 30.29in /  1025.6hPa ENE 4.0mph /  6.4km/h 6.0mph /  9.7km/h 67% 0.00in /  0mm
09:26 53.1 °F /  11.7 °C 42.8 °F /  6 °C 30.29in /  1025.6hPa East 2.0mph /  3.2km/h 4.0mph /  6.4km/h 68% 0.00in /  0mm
09:31 53.9 °F /  12.2 °C 42.8 °F /  6 °C 30.29in /  1025.6hPa ENE 5.0mph /  8km/h 7.0mph /  11.3km/h 66% 0.00in /  0mm
09:36 54.7 °F /  12.6 °C 42.8 °F /  6 °C 30.28in /  1025.3hPa East 5.0mph /  8km/h 7.0mph /  11.3km/h 64% 0.00in /  0mm
09:41 55.3 °F /  12.9 °C 44.2 °F /  6.8 °C 30.28in /  1025.3hPa East 4.0mph /  6.4km/h 6.0mph /  9.7km/h 66% 0.00in /  0mm
09:46 56.1 °F /  13.4 °C 44.1 °F /  6.7 °C 30.28in /  1025.3hPa ESE 4.0mph /  6.4km/h 5.0mph /  8km/h 64% 0.00in /  0mm
09:51 57.1 °F /  13.9 °C 45.5 °F /  7.5 °C 30.28in /  1025.3hPa ESE 3.0mph /  4.8km/h 4.0mph /  6.4km/h 65% 0.00in /  0mm
09:56 57.9 °F /  14.4 °C 45.0 °F /  7.2 °C 30.28in /  1025.3hPa ESE 5.0mph /  8km/h 7.0mph /  11.3km/h 62% 0.00in /  0mm
10:01 58.6 °F /  14.8 °C 46.1 °F /  7.8 °C 30.28in /  1025.3hPa ESE 5.0mph /  8km/h 7.0mph /  11.3km/h 63% 0.00in /  0mm
10:06 59.1 °F /  15.1 °C 44.8 °F /  7.1 °C 30.29in /  1025.6hPa ESE 9.0mph /  14.5km/h 11.0mph /  17.7km/h 59% 0.00in /  0mm
10:11 59.3 °F /  15.2 °C 45.9 °F /  7.7 °C 30.28in /  1025.3hPa East 5.0mph /  8km/h 9.0mph /  14.5km/h 61% 0.00in /  0mm
10:16 59.6 °F /  15.3 °C 46.2 °F /  7.9 °C 30.29in /  1025.6hPa SE 6.0mph /  9.7km/h 9.0mph /  14.5km/h 61% 0.00in /  0mm
10:21 60.0 °F /  15.6 °C 46.1 °F /  7.8 °C 30.28in /  1025.3hPa SE 5.0mph /  8km/h 9.0mph /  14.5km/h 60% 0.00in /  0mm
10:26 60.3 °F /  15.7 °C 45.9 °F /  7.7 °C 30.28in /  1025.3hPa ESE 6.0mph /  9.7km/h 8.0mph /  12.9km/h 59% 0.00in /  0mm
10:31 60.4 °F /  15.8 °C 46.9 °F /  8.3 °C 30.28in /  1025.3hPa ESE 6.0mph /  9.7km/h 9.0mph /  14.5km/h 61% 0.00in /  0mm
10:36 60.5 °F /  15.8 °C 47.4 °F /  8.6 °C 30.28in /  1025.3hPa SE 4.0mph /  6.4km/h 6.0mph /  9.7km/h 62% 0.00in /  0mm
10:41 60.5 °F /  15.8 °C 47.0 °F /  8.3 °C 30.27in /  1024.9hPa ESE 5.0mph /  8km/h 10.0mph /  16.1km/h 61% 0.00in /  0mm
10:46 60.7 °F /  15.9 °C 47.6 °F /  8.7 °C 30.27in /  1024.9hPa East 5.0mph /  8km/h 9.0mph /  14.5km/h 62% 0.00in /  0mm
10:51 61.1 °F /  16.2 °C 47.6 °F /  8.7 °C 30.27in /  1024.9hPa East 9.0mph /  14.5km/h 9.0mph /  14.5km/h 61% 0.00in /  0mm
10:56 61.5 °F /  16.4 °C 48.4 °F /  9.1 °C 30.27in /  1024.9hPa ESE 7.0mph /  11.3km/h 15.0mph /  24.1km/h 62% 0.00in /  0mm
11:01 61.9 °F /  16.6 °C 48.8 °F /  9.3 °C 30.27in /  1024.9hPa ESE 8.0mph /  12.9km/h 11.0mph /  17.7km/h 62% 0.00in /  0mm
11:06 62.2 °F /  16.8 °C 48.6 °F /  9.2 °C 30.27in /  1024.9hPa ESE 6.0mph /  9.7km/h 10.0mph /  16.1km/h 61% 0.00in /  0mm
11:11 62.4 °F /  16.9 °C 48.8 °F /  9.3 °C 30.27in /  1024.9hPa SE 9.0mph /  14.5km/h 12.0mph /  19.3km/h 61% 0.00in /  0mm
11:16 62.6 °F /  17 °C 49.0 °F /  9.4 °C 30.27in /  1024.9hPa SSE 12.0mph /  19.3km/h 13.0mph /  20.9km/h 61% 0.00in /  0mm
11:21 62.8 °F /  17.1 °C 49.6 °F /  9.8 °C 30.27in /  1024.9hPa South 6.0mph /  9.7km/h 11.0mph /  17.7km/h 62% 0.00in /  0mm
11:26 63.0 °F /  17.2 °C 49.8 °F /  9.9 °C 30.27in /  1024.9hPa ESE 7.0mph /  11.3km/h 13.0mph /  20.9km/h 62% 0.00in /  0mm
11:31 63.5 °F /  17.5 °C 50.7 °F /  10.4 °C 30.27in /  1024.9hPa ESE 7.0mph /  11.3km/h 10.0mph /  16.1km/h 63% 0.00in /  0mm
11:36 63.8 °F /  17.7 °C 51.0 °F /  10.6 °C 30.26in /  1024.6hPa SSE 10.0mph /  16.1km/h 11.0mph /  17.7km/h 63% 0.00in /  0mm
11:41 64.1 °F /  17.8 °C 51.3 °F /  10.7 °C 30.26in /  1024.6hPa ESE 8.0mph /  12.9km/h 13.0mph /  20.9km/h 63% 0.00in /  0mm
11:47 64.7 °F /  18.2 °C 51.8 °F /  11 °C 30.26in /  1024.6hPa SSE 9.0mph /  14.5km/h 14.0mph /  22.5km/h 63% 0.00in /  0mm
11:52 64.8 °F /  18.2 °C 51.0 °F /  10.6 °C 30.26in /  1024.6hPa South 8.0mph /  12.9km/h 12.0mph /  19.3km/h 61% 0.00in /  0mm
11:57 65.2 °F /  18.4 °C 52.7 °F /  11.5 °C 30.25in /  1024.3hPa SE 7.0mph /  11.3km/h 11.0mph /  17.7km/h 64% 0.00in /  0mm
12:02 65.7 °F /  18.7 °C 51.9 °F /  11.1 °C 30.25in /  1024.3hPa SSE 10.0mph /  16.1km/h 12.0mph /  19.3km/h 61% 0.00in /  0mm
12:07 65.6 °F /  18.7 °C 51.4 °F /  10.8 °C 30.25in /  1024.3hPa SE 9.0mph /  14.5km/h 12.0mph /  19.3km/h 60% 0.00in /  0mm
12:12 65.5 °F /  18.6 °C 52.2 °F /  11.2 °C 30.24in /  1023.9hPa SE 8.0mph /  12.9km/h 11.0mph /  17.7km/h 62% 0.00in /  0mm
12:17 65.9 °F /  18.8 °C 52.5 °F /  11.4 °C 30.24in /  1023.9hPa ESE 11.0mph /  17.7km/h 15.0mph /  24.1km/h 62% 0.00in /  0mm
12:22 66.1 °F /  18.9 °C 52.3 °F /  11.3 °C 30.24in /  1023.9hPa ESE 7.0mph /  11.3km/h 13.0mph /  20.9km/h 61% 0.00in /  0mm
12:27 66.5 °F /  19.2 °C 51.8 °F /  11 °C 30.24in /  1023.9hPa ESE 9.0mph /  14.5km/h 12.0mph /  19.3km/h 59% 0.00in /  0mm
12:32 66.3 °F /  19.1 °C 51.6 °F /  10.9 °C 30.24in /  1023.9hPa SE 8.0mph /  12.9km/h 12.0mph /  19.3km/h 59% 0.00in /  0mm
12:37 66.4 °F /  19.1 °C 51.7 °F /  10.9 °C 30.23in /  1023.6hPa ESE 8.0mph /  12.9km/h 10.0mph /  16.1km/h 59% 0.00in /  0mm
12:42 66.2 °F /  19 °C 51.0 °F /  10.6 °C 30.23in /  1023.6hPa ESE 7.0mph /  11.3km/h 14.0mph /  22.5km/h 58% 0.00in /  0mm
12:47 66.0 °F /  18.9 °C 51.3 °F /  10.7 °C 30.23in /  1023.6hPa SE 7.0mph /  11.3km/h 14.0mph /  22.5km/h 59% 0.00in /  0mm
12:52 66.2 °F /  19 °C 51.9 °F /  11.1 °C 30.23in /  1023.6hPa SE 6.0mph /  9.7km/h 13.0mph /  20.9km/h 60% 0.00in /  0mm
12:57 66.9 °F /  19.4 °C 52.1 °F /  11.2 °C 30.23in /  1023.6hPa SSE 10.0mph /  16.1km/h 14.0mph /  22.5km/h 59% 0.00in /  0mm
13:02 67.2 °F /  19.6 °C 51.9 °F /  11.1 °C 30.22in /  1023.2hPa ESE 12.0mph /  19.3km/h 13.0mph /  20.9km/h 58% 0.00in /  0mm
13:07 67.3 °F /  19.6 °C 52.5 °F /  11.4 °C 30.22in /  1023.2hPa ESE 9.0mph /  14.5km/h 13.0mph /  20.9km/h 59% 0.00in /  0mm
13:12 67.9 °F /  19.9 °C 52.6 °F /  11.4 °C 30.21in /  1022.9hPa SE 9.0mph /  14.5km/h 13.0mph /  20.9km/h 58% 0.00in /  0mm
13:17 67.9 °F /  19.9 °C 52.1 °F /  11.2 °C 30.21in /  1022.9hPa SSE 12.0mph /  19.3km/h 12.0mph /  19.3km/h 57% 0.00in /  0mm
13:22 68.0 °F /  20 °C 52.2 °F /  11.2 °C 30.21in /  1022.9hPa SSE 15.0mph /  24.1km/h 15.0mph /  24.1km/h 57% 0.00in /  0mm
13:27 67.8 °F /  19.9 °C 52.5 °F /  11.4 °C 30.20in /  1022.6hPa SSE 7.0mph /  11.3km/h 11.0mph /  17.7km/h 58% 0.00in /  0mm
13:32 67.8 °F /  19.9 °C 52.0 °F /  11.1 °C 30.20in /  1022.6hPa SSE 7.0mph /  11.3km/h 10.0mph /  16.1km/h 57% 0.00in /  0mm
13:37 67.3 °F /  19.6 °C 51.6 °F /  10.9 °C 30.20in /  1022.6hPa SE 10.0mph /  16.1km/h 13.0mph /  20.9km/h 57% 0.00in /  0mm
13:43 67.1 °F /  19.5 °C 51.8 °F /  11 °C 30.20in /  1022.6hPa SE 8.0mph /  12.9km/h 10.0mph /  16.1km/h 58% 0.00in /  0mm
13:48 67.5 °F /  19.7 °C 52.7 °F /  11.5 °C 30.20in /  1022.6hPa SSE 10.0mph /  16.1km/h 12.0mph /  19.3km/h 59% 0.00in /  0mm
13:53 67.5 °F /  19.7 °C 52.7 °F /  11.5 °C 30.19in /  1022.2hPa ESE 14.0mph /  22.5km/h 16.0mph /  25.7km/h 59% 0.00in /  0mm
13:58 67.9 °F /  19.9 °C 52.6 °F /  11.4 °C 30.19in /  1022.2hPa SE 10.0mph /  16.1km/h 11.0mph /  17.7km/h 58% 0.00in /  0mm
14:03 68.3 °F /  20.2 °C 52.5 °F /  11.4 °C 30.19in /  1022.2hPa SE 11.0mph /  17.7km/h 12.0mph /  19.3km/h 57% 0.00in /  0mm
14:08 68.9 °F /  20.5 °C 54.0 °F /  12.2 °C 30.18in /  1021.9hPa South 10.0mph /  16.1km/h 15.0mph /  24.1km/h 59% 0.00in /  0mm
14:13 69.1 °F /  20.6 °C 52.8 °F /  11.6 °C 30.18in /  1021.9hPa South 8.0mph /  12.9km/h 15.0mph /  24.1km/h 56% 0.00in /  0mm
14:18 68.8 °F /  20.4 °C 52.0 °F /  11.1 °C 30.18in /  1021.9hPa SSE 5.0mph /  8km/h 11.0mph /  17.7km/h 55% 0.00in /  0mm
14:23 68.4 °F /  20.2 °C 52.6 °F /  11.4 °C 30.18in /  1021.9hPa SE 9.0mph /  14.5km/h 12.0mph /  19.3km/h 57% 0.00in /  0mm
14:28 68.1 °F /  20.1 °C 51.8 °F /  11 °C 30.18in /  1021.9hPa SSE 10.0mph /  16.1km/h 13.0mph /  20.9km/h 56% 0.00in /  0mm
14:33 68.3 °F /  20.2 °C 53.0 °F /  11.7 °C 30.18in /  1021.9hPa SE 6.0mph /  9.7km/h 11.0mph /  17.7km/h 58% 0.00in /  0mm
14:38 68.4 °F /  20.2 °C 53.1 °F /  11.7 °C 30.18in /  1021.9hPa SSE 11.0mph /  17.7km/h 11.0mph /  17.7km/h 58% 0.00in /  0mm
14:43 68.6 °F /  20.3 °C 52.3 °F /  11.3 °C 30.18in /  1021.9hPa SE 7.0mph /  11.3km/h 13.0mph /  20.9km/h 56% 0.00in /  0mm
14:48 68.9 °F /  20.5 °C 52.1 °F /  11.2 °C 30.18in /  1021.9hPa SE 4.0mph /  6.4km/h 12.0mph /  19.3km/h 55% 0.00in /  0mm
14:53 68.5 °F /  20.3 °C 52.7 °F /  11.5 °C 30.17in /  1021.6hPa SSW 7.0mph /  11.3km/h 10.0mph /  16.1km/h 57% 0.00in /  0mm
14:58 68.4 °F /  20.2 °C 52.6 °F /  11.4 °C 30.17in /  1021.6hPa SE 6.0mph /  9.7km/h 11.0mph /  17.7km/h 57% 0.00in /  0mm
15:03 68.3 °F /  20.2 °C 53.0 °F /  11.7 °C 30.17in /  1021.6hPa SE 8.0mph /  12.9km/h 11.0mph /  17.7km/h 58% 0.00in /  0mm
15:09 68.1 °F /  20.1 °C 52.3 °F /  11.3 °C 30.17in /  1021.6hPa SSE 8.0mph /  12.9km/h 11.0mph /  17.7km/h 57% 0.00in /  0mm
15:14 68.0 °F /  20 °C 52.2 °F /  11.2 °C 30.17in /  1021.6hPa SE 6.0mph /  9.7km/h 10.0mph /  16.1km/h 57% 0.00in /  0mm
15:19 67.9 °F /  19.9 °C 52.1 °F /  11.2 °C 30.17in /  1021.6hPa SE 10.0mph /  16.1km/h 12.0mph /  19.3km/h 57% 0.00in /  0mm
15:24 67.9 °F /  19.9 °C 52.1 °F /  11.2 °C 30.16in /  1021.2hPa ESE 7.0mph /  11.3km/h 13.0mph /  20.9km/h 57% 0.00in /  0mm
15:29 68.1 °F /  20.1 °C 52.8 °F /  11.6 °C 30.16in /  1021.2hPa ESE 13.0mph /  20.9km/h 14.0mph /  22.5km/h 58% 0.00in /  0mm
15:34 68.5 °F /  20.3 °C 53.6 °F /  12 °C 30.16in /  1021.2hPa SSE 7.0mph /  11.3km/h 12.0mph /  19.3km/h 59% 0.00in /  0mm
15:39 68.3 °F /  20.2 °C 52.5 °F /  11.4 °C 30.15in /  1020.9hPa SE 8.0mph /  12.9km/h 13.0mph /  20.9km/h 57% 0.00in /  0mm
15:44 68.1 °F /  20.1 °C 52.3 °F /  11.3 °C 30.15in /  1020.9hPa SE 8.0mph /  12.9km/h 14.0mph /  22.5km/h 57% 0.00in /  0mm
15:49 68.4 °F /  20.2 °C 53.1 °F /  11.7 °C 30.15in /  1020.9hPa SE 8.0mph /  12.9km/h 16.0mph /  25.7km/h 58% 0.00in /  0mm
15:54 67.9 °F /  19.9 °C 52.6 °F /  11.4 °C 30.14in /  1020.5hPa SE 8.0mph /  12.9km/h 14.0mph /  22.5km/h 58% 0.00in /  0mm
15:59 68.3 °F /  20.2 °C 53.0 °F /  11.7 °C 30.14in /  1020.5hPa SE 5.0mph /  8km/h 13.0mph /  20.9km/h 58% 0.00in /  0mm
16:04 68.0 °F /  20 °C 53.2 °F /  11.8 °C 30.14in /  1020.5hPa ESE 7.0mph /  11.3km/h 11.0mph /  17.7km/h 59% 0.00in /  0mm
16:09 67.8 °F /  19.9 °C 53.4 °F /  11.9 °C 30.14in /  1020.5hPa SE 11.0mph /  17.7km/h 12.0mph /  19.3km/h 60% 0.00in /  0mm
16:14 67.7 °F /  19.8 °C 53.3 °F /  11.8 °C 30.14in /  1020.5hPa SE 9.0mph /  14.5km/h 13.0mph /  20.9km/h 60% 0.00in /  0mm
16:19 67.7 °F /  19.8 °C 53.3 °F /  11.8 °C 30.14in /  1020.5hPa SE 4.0mph /  6.4km/h 13.0mph /  20.9km/h 60% 0.00in /  0mm
16:24 67.6 °F /  19.8 °C 52.8 °F /  11.6 °C 30.14in /  1020.5hPa SE 6.0mph /  9.7km/h 13.0mph /  20.9km/h 59% 0.00in /  0mm
16:29 67.6 °F /  19.8 °C 53.2 °F /  11.8 °C 30.14in /  1020.5hPa SE 9.0mph /  14.5km/h 9.0mph /  14.5km/h 60% 0.00in /  0mm
16:34 67.5 °F /  19.7 °C 53.1 °F /  11.7 °C 30.13in /  1020.2hPa ESE 8.0mph /  12.9km/h 11.0mph /  17.7km/h 60% 0.00in /  0mm
16:39 67.3 °F /  19.6 °C 53.4 °F /  11.9 °C 30.13in /  1020.2hPa SSE 4.0mph /  6.4km/h 12.0mph /  19.3km/h 61% 0.00in /  0mm
16:44 67.2 °F /  19.6 °C 53.3 °F /  11.8 °C 30.13in /  1020.2hPa SSE 9.0mph /  14.5km/h 13.0mph /  20.9km/h 61% 0.00in /  0mm
16:49 67.0 °F /  19.4 °C 53.1 °F /  11.7 °C 30.13in /  1020.2hPa SE 6.0mph /  9.7km/h 14.0mph /  22.5km/h 61% 0.00in /  0mm
16:54 66.8 °F /  19.3 °C 52.9 °F /  11.6 °C 30.13in /  1020.2hPa SE 14.0mph /  22.5km/h 14.0mph /  22.5km/h 61% 0.00in /  0mm
16:59 66.7 °F /  19.3 °C 53.3 °F /  11.8 °C 30.13in /  1020.2hPa SE 9.0mph /  14.5km/h 13.0mph /  20.9km/h 62% 0.00in /  0mm
17:04 66.6 °F /  19.2 °C 54.1 °F /  12.3 °C 30.13in /  1020.2hPa SE 6.0mph /  9.7km/h 12.0mph /  19.3km/h 64% 0.00in /  0mm
17:09 66.4 °F /  19.1 °C 53.4 °F /  11.9 °C 30.13in /  1020.2hPa SE 12.0mph /  19.3km/h 12.0mph /  19.3km/h 63% 0.00in /  0mm
17:14 66.4 °F /  19.1 °C 53.9 °F /  12.2 °C 30.13in /  1020.2hPa SE 7.0mph /  11.3km/h 15.0mph /  24.1km/h 64% 0.00in /  0mm
17:19 66.2 °F /  19 °C 54.5 °F /  12.5 °C 30.13in /  1020.2hPa SSE 9.0mph /  14.5km/h 11.0mph /  17.7km/h 66% 0.00in /  0mm
17:24 66.1 °F /  18.9 °C 54.4 °F /  12.4 °C 30.12in /  1019.9hPa SE 6.0mph /  9.7km/h 10.0mph /  16.1km/h 66% 0.00in /  0mm
17:29 65.9 °F /  18.8 °C 54.7 °F /  12.6 °C 30.12in /  1019.9hPa SE 9.0mph /  14.5km/h 12.0mph /  19.3km/h 67% 0.00in /  0mm
17:34 65.8 °F /  18.8 °C 55.4 °F /  13 °C 30.12in /  1019.9hPa SE 6.0mph /  9.7km/h 12.0mph /  19.3km/h 69% 0.00in /  0mm
17:39 65.6 °F /  18.7 °C 55.2 °F /  12.9 °C 30.12in /  1019.9hPa ESE 5.0mph /  8km/h 13.0mph /  20.9km/h 69% 0.00in /  0mm
17:44 65.4 °F /  18.6 °C 55.4 °F /  13 °C 30.12in /  1019.9hPa ESE 8.0mph /  12.9km/h 14.0mph /  22.5km/h 70% 0.00in /  0mm
17:49 65.2 °F /  18.4 °C 55.6 °F /  13.1 °C 30.12in /  1019.9hPa SE 7.0mph /  11.3km/h 14.0mph /  22.5km/h 71% 0.00in /  0mm
17:54 64.9 °F /  18.3 °C 55.7 °F /  13.2 °C 30.13in /  1020.2hPa SSE 7.0mph /  11.3km/h 11.0mph /  17.7km/h 72% 0.00in /  0mm
17:59 64.8 °F /  18.2 °C 56.0 °F /  13.3 °C 30.13in /  1020.2hPa SSE 11.0mph /  17.7km/h 16.0mph /  25.7km/h 73% 0.00in /  0mm
18:04 64.7 °F /  18.2 °C 55.9 °F /  13.3 °C 30.12in /  1019.9hPa SE 6.0mph /  9.7km/h 13.0mph /  20.9km/h 73% 0.00in /  0mm
18:09 64.6 °F /  18.1 °C 55.8 °F /  13.2 °C 30.12in /  1019.9hPa SSE 7.0mph /  11.3km/h 14.0mph /  22.5km/h 73% 0.00in /  0mm
18:15 64.4 °F /  18 °C 55.9 °F /  13.3 °C 30.11in /  1019.5hPa SSE 11.0mph /  17.7km/h 14.0mph /  22.5km/h 74% 0.00in /  0mm
18:20 64.2 °F /  17.9 °C 55.8 °F /  13.2 °C 30.11in /  1019.5hPa ESE 5.0mph /  8km/h 10.0mph /  16.1km/h 74% 0.00in /  0mm
18:25 64.0 °F /  17.8 °C 55.9 °F /  13.3 °C 30.11in /  1019.5hPa SSE 8.0mph /  12.9km/h 13.0mph /  20.9km/h 75% 0.00in /  0mm
18:30 63.8 °F /  17.7 °C 55.7 °F /  13.2 °C 30.10in /  1019.2hPa SE 10.0mph /  16.1km/h 12.0mph /  19.3km/h 75% 0.00in /  0mm
18:35 63.5 °F /  17.5 °C 55.8 °F /  13.2 °C 30.11in /  1019.5hPa SSE 4.0mph /  6.4km/h 10.0mph /  16.1km/h 76% 0.00in /  0mm
18:36 63.5 °F /  17.5 °C 55.8 °F /  13.2 °C 30.11in /  1019.5hPa SSE 6.0mph /  9.7km/h 10.0mph /  16.1km/h 76% 0.00in /  0mm
18:41 63.3 °F /  17.4 °C 56.3 °F /  13.5 °C 30.11in /  1019.5hPa ESE 8.0mph /  12.9km/h 15.0mph /  24.1km/h 78% 0.00in /  0mm
18:46 63.0 °F /  17.2 °C 56.7 °F /  13.7 °C 30.11in /  1019.5hPa ESE 12.0mph /  19.3km/h 15.0mph /  24.1km/h 80% 0.00in /  0mm
18:51 62.8 °F /  17.1 °C 57.2 °F /  14 °C 30.11in /  1019.5hPa SSE 16.0mph /  25.7km/h 17.0mph /  27.4km/h 82% 0.00in /  0mm
18:56 62.6 °F /  17 °C 57.0 °F /  13.9 °C 30.11in /  1019.5hPa SE 12.0mph /  19.3km/h 15.0mph /  24.1km/h 82% 0.00in /  0mm
19:01 62.5 °F /  16.9 °C 56.9 °F /  13.8 °C 30.12in /  1019.9hPa SSE 8.0mph /  12.9km/h 10.0mph /  16.1km/h 82% 0.00in /  0mm
19:06 62.4 °F /  16.9 °C 56.8 °F /  13.8 °C 30.12in /  1019.9hPa SSE 15.0mph /  24.1km/h 15.0mph /  24.1km/h 82% 0.00in /  0mm
19:11 62.3 °F /  16.8 °C 56.7 °F /  13.7 °C 30.12in /  1019.9hPa SSE 9.0mph /  14.5km/h 15.0mph /  24.1km/h 82% 0.00in /  0mm
19:16 62.1 °F /  16.7 °C 56.9 °F /  13.8 °C 30.12in /  1019.9hPa SSE 8.0mph /  12.9km/h 10.0mph /  16.1km/h 83% 0.00in /  0mm
19:21 61.9 °F /  16.6 °C 57.0 °F /  13.9 °C 30.13in /  1020.2hPa SSE 17.0mph /  27.4km/h 19.0mph /  30.6km/h 84% 0.00in /  0mm
19:26 61.8 °F /  16.6 °C 56.9 °F /  13.8 °C 30.13in /  1020.2hPa SSE 6.0mph /  9.7km/h 12.0mph /  19.3km/h 84% 0.00in /  0mm
19:31 61.3 °F /  16.3 °C 57.1 °F /  13.9 °C 30.13in /  1020.2hPa South 12.0mph /  19.3km/h 14.0mph /  22.5km/h 86% 0.00in /  0mm
19:36 60.8 °F /  16 °C 56.9 °F /  13.8 °C 30.13in /  1020.2hPa South 9.0mph /  14.5km/h 14.0mph /  22.5km/h 87% 0.00in /  0mm
19:41 60.3 °F /  15.7 °C 57.0 °F /  13.9 °C 30.13in /  1020.2hPa SE 9.0mph /  14.5km/h 13.0mph /  20.9km/h 89% 0.00in /  0mm
19:46 59.9 °F /  15.5 °C 57.0 °F /  13.9 °C 30.13in /  1020.2hPa SSE 7.0mph /  11.3km/h 10.0mph /  16.1km/h 90% 0.00in /  0mm
19:52 59.5 °F /  15.3 °C 56.9 °F /  13.8 °C 30.13in /  1020.2hPa SSE 7.0mph /  11.3km/h 13.0mph /  20.9km/h 91% 0.00in /  0mm
19:57 59.1 °F /  15.1 °C 56.8 °F /  13.8 °C 30.13in /  1020.2hPa SE 10.0mph /  16.1km/h 10.0mph /  16.1km/h 92% 0.00in /  0mm
20:02 58.9 °F /  14.9 °C 56.9 °F /  13.8 °C 30.12in /  1019.9hPa SE 4.0mph /  6.4km/h 10.0mph /  16.1km/h 93% 0.00in /  0mm
20:07 58.7 °F /  14.8 °C 56.7 °F /  13.7 °C 30.12in /  1019.9hPa SE 5.0mph /  8km/h 9.0mph /  14.5km/h 93% 0.00in /  0mm
20:12 58.6 °F /  14.8 °C 56.9 °F /  13.8 °C 30.12in /  1019.9hPa SE 5.0mph /  8km/h 7.0mph /  11.3km/h 94% 0.00in /  0mm
20:17 58.6 °F /  14.8 °C 56.9 °F /  13.8 °C 30.12in /  1019.9hPa SE 5.0mph /  8km/h 9.0mph /  14.5km/h 94% 0.00in /  0mm
20:22 58.5 °F /  14.7 °C 56.8 °F /  13.8 °C 30.12in /  1019.9hPa SE 4.0mph /  6.4km/h 8.0mph /  12.9km/h 94% 0.00in /  0mm
20:27 58.5 °F /  14.7 °C 56.8 °F /  13.8 °C 30.12in /  1019.9hPa SE 5.0mph /  8km/h 8.0mph /  12.9km/h 94% 0.00in /  0mm
20:32 58.5 °F /  14.7 °C 56.8 °F /  13.8 °C 30.11in /  1019.5hPa SSE 7.0mph /  11.3km/h 8.0mph /  12.9km/h 94% 0.00in /  0mm
20:37 58.5 °F /  14.7 °C 56.8 °F /  13.8 °C 30.11in /  1019.5hPa SSE 6.0mph /  9.7km/h 9.0mph /  14.5km/h 94% 0.00in /  0mm
20:42 58.5 °F /  14.7 °C 56.8 °F /  13.8 °C 30.11in /  1019.5hPa South 9.0mph /  14.5km/h 10.0mph /  16.1km/h 94% 0.00in /  0mm
20:48 58.6 °F /  14.8 °C 56.9 °F /  13.8 °C 30.11in /  1019.5hPa SE 7.0mph /  11.3km/h 9.0mph /  14.5km/h 94% 0.00in /  0mm
20:53 58.6 °F /  14.8 °C 56.9 °F /  13.8 °C 30.11in /  1019.5hPa ESE 7.0mph /  11.3km/h 10.0mph /  16.1km/h 94% 0.00in /  0mm
20:58 58.6 °F /  14.8 °C 56.9 °F /  13.8 °C 30.11in /  1019.5hPa SE 6.0mph /  9.7km/h 9.0mph /  14.5km/h 94% 0.00in /  0mm
21:03 58.6 °F /  14.8 °C 56.9 °F /  13.8 °C 30.11in /  1019.5hPa SSE 7.0mph /  11.3km/h 10.0mph /  16.1km/h 94% 0.00in /  0mm
21:08 58.6 °F /  14.8 °C 57.2 °F /  14 °C 30.10in /  1019.2hPa SSE 5.0mph /  8km/h 10.0mph /  16.1km/h 95% 0.00in /  0mm
21:13 58.7 °F /  14.8 °C 57.3 °F /  14.1 °C 30.10in /  1019.2hPa SSE 6.0mph /  9.7km/h 10.0mph /  16.1km/h 95% 0.00in /  0mm
21:18 58.7 °F /  14.8 °C 57.3 °F /  14.1 °C 30.10in /  1019.2hPa SE 6.0mph /  9.7km/h 12.0mph /  19.3km/h 95% 0.00in /  0mm
21:23 58.7 °F /  14.8 °C 57.3 °F /  14.1 °C 30.10in /  1019.2hPa SE 7.0mph /  11.3km/h 9.0mph /  14.5km/h 95% 0.00in /  0mm
21:28 58.7 °F /  14.8 °C 57.3 °F /  14.1 °C 30.11in /  1019.5hPa SSE 5.0mph /  8km/h 9.0mph /  14.5km/h 95% 0.00in /  0mm
21:33 58.8 °F /  14.9 °C 57.4 °F /  14.1 °C 30.11in /  1019.5hPa SSE 8.0mph /  12.9km/h 11.0mph /  17.7km/h 95% 0.00in /  0mm
21:38 58.8 °F /  14.9 °C 57.4 °F /  14.1 °C 30.10in /  1019.2hPa SE 6.0mph /  9.7km/h 10.0mph /  16.1km/h 95% 0.00in /  0mm
21:43 58.8 °F /  14.9 °C 57.4 °F /  14.1 °C 30.10in /  1019.2hPa SE 9.0mph /  14.5km/h 14.0mph /  22.5km/h 95% 0.00in /  0mm
21:48 58.8 °F /  14.9 °C 57.4 °F /  14.1 °C 30.10in /  1019.2hPa SE 6.0mph /  9.7km/h 11.0mph /  17.7km/h 95% 0.00in /  0mm
21:53 58.8 °F /  14.9 °C 57.4 °F /  14.1 °C 30.10in /  1019.2hPa SSE 8.0mph /  12.9km/h 10.0mph /  16.1km/h 95% 0.00in /  0mm
21:58 58.8 °F /  14.9 °C 57.4 °F /  14.1 °C 30.09in /  1018.8hPa ESE 7.0mph /  11.3km/h 15.0mph /  24.1km/h 95% 0.00in /  0mm
22:03 58.8 °F /  14.9 °C 57.4 °F /  14.1 °C 30.10in /  1019.2hPa SE 6.0mph /  9.7km/h 10.0mph /  16.1km/h 95% 0.00in /  0mm
22:08 58.9 °F /  14.9 °C 57.5 °F /  14.2 °C 30.09in /  1018.8hPa SE 6.0mph /  9.7km/h 15.0mph /  24.1km/h 95% 0.00in /  0mm
22:13 58.9 °F /  14.9 °C 57.5 °F /  14.2 °C 30.10in /  1019.2hPa SE 7.0mph /  11.3km/h 11.0mph /  17.7km/h 95% 0.00in /  0mm
22:18 58.9 °F /  14.9 °C 57.5 °F /  14.2 °C 30.09in /  1018.8hPa SSE 6.0mph /  9.7km/h 11.0mph /  17.7km/h 95% 0.00in /  0mm
22:24 59.0 °F /  15 °C 57.6 °F /  14.2 °C 30.09in /  1018.8hPa SE 5.0mph /  8km/h 12.0mph /  19.3km/h 95% 0.00in /  0mm
22:29 59.0 °F /  15 °C 57.6 °F /  14.2 °C 30.09in /  1018.8hPa SSE 8.0mph /  12.9km/h 12.0mph /  19.3km/h 95% 0.00in /  0mm
22:34 59.0 °F /  15 °C 57.6 °F /  14.2 °C 30.08in /  1018.5hPa SSE 7.0mph /  11.3km/h 13.0mph /  20.9km/h 95% 0.00in /  0mm
22:39 59.1 °F /  15.1 °C 57.7 °F /  14.3 °C 30.08in /  1018.5hPa SE 7.0mph /  11.3km/h 11.0mph /  17.7km/h 95% 0.00in /  0mm
22:44 59.1 °F /  15.1 °C 57.7 °F /  14.3 °C 30.08in /  1018.5hPa SE 8.0mph /  12.9km/h 10.0mph /  16.1km/h 95% 0.00in /  0mm
22:49 59.1 °F /  15.1 °C 57.7 °F /  14.3 °C 30.08in /  1018.5hPa ESE 9.0mph /  14.5km/h 11.0mph /  17.7km/h 95% 0.00in /  0mm
22:54 59.2 °F /  15.1 °C 57.8 °F /  14.3 °C 30.08in /  1018.5hPa SE 9.0mph /  14.5km/h 12.0mph /  19.3km/h 95% 0.00in /  0mm
22:59 59.3 °F /  15.2 °C 57.9 °F /  14.4 °C 30.08in /  1018.5hPa SSE 9.0mph /  14.5km/h 9.0mph /  14.5km/h 95% 0.00in /  0mm
23:04 59.4 °F /  15.2 °C 58.0 °F /  14.4 °C 30.08in /  1018.5hPa SSE 12.0mph /  19.3km/h 14.0mph /  22.5km/h 95% 0.00in /  0mm
23:09 59.5 °F /  15.3 °C 58.1 °F /  14.5 °C 30.08in /  1018.5hPa SSE 7.0mph /  11.3km/h 13.0mph /  20.9km/h 95% 0.00in /  0mm
23:15 59.6 °F /  15.3 °C 58.2 °F /  14.6 °C 30.08in /  1018.5hPa SSE 4.0mph /  6.4km/h 13.0mph /  20.9km/h 95% 0.00in /  0mm
23:20 59.6 °F /  15.3 °C 58.2 °F /  14.6 °C 30.08in /  1018.5hPa SSE 7.0mph /  11.3km/h 14.0mph /  22.5km/h 95% 0.00in /  0mm
23:25 59.7 °F /  15.4 °C 58.3 °F /  14.6 °C 30.07in /  1018.2hPa SSE 13.0mph /  20.9km/h 13.0mph /  20.9km/h 95% 0.00in /  0mm
23:30 59.8 °F /  15.4 °C 58.4 °F /  14.7 °C 30.07in /  1018.2hPa SSE 14.0mph /  22.5km/h 17.0mph /  27.4km/h 95% 0.00in /  0mm
23:35 59.9 °F /  15.5 °C 58.5 °F /  14.7 °C 30.06in /  1017.8hPa SSE 9.0mph /  14.5km/h 14.0mph /  22.5km/h 95% 0.00in /  0mm
23:40 59.9 °F /  15.5 °C 58.5 °F /  14.7 °C 30.06in /  1017.8hPa SE 11.0mph /  17.7km/h 16.0mph /  25.7km/h 95% 0.00in /  0mm
23:45 60.0 °F /  15.6 °C 58.6 °F /  14.8 °C 30.05in /  1017.5hPa SE 11.0mph /  17.7km/h 17.0mph /  27.4km/h 95% 0.00in /  0mm
23:50 60.1 °F /  15.6 °C 58.7 °F /  14.8 °C 30.06in /  1017.8hPa SE 10.0mph /  16.1km/h 15.0mph /  24.1km/h 95% 0.00in /  0mm
23:55 60.1 °F /  15.6 °C 58.7 °F /  14.8 °C 30.05in /  1017.5hPa SSE 7.0mph /  11.3km/h 12.0mph /  19.3km/h 95% 0.00in /  0mm
Compliments of Weather Underground